createdAt,value
2018-05-04T00:00:24.290Z,0.00
2018-05-04T00:01:24.226Z,0.00
2018-05-04T00:02:24.168Z,0.00
2018-05-04T00:03:24.102Z,0.00
2018-05-04T00:04:24.040Z,0.00
2018-05-04T00:05:23.974Z,0.00
2018-05-04T00:06:23.903Z,0.00
2018-05-04T00:07:23.848Z,0.00
2018-05-04T00:08:23.780Z,0.00
2018-05-04T00:09:23.717Z,0.00
2018-05-04T00:10:23.653Z,0.00
2018-05-04T00:11:23.592Z,0.00
2018-05-04T00:12:23.528Z,0.00
2018-05-04T00:13:23.460Z,0.00
2018-05-04T00:14:23.400Z,0.00
2018-05-04T00:15:23.336Z,0.00
2018-05-04T00:16:23.272Z,0.00
2018-05-04T00:17:23.212Z,0.00
2018-05-04T00:18:23.145Z,0.00
2018-05-04T00:19:23.077Z,0.00
2018-05-04T00:20:23.014Z,0.00
2018-05-04T00:21:22.949Z,0.00
2018-05-04T00:22:22.891Z,0.00
2018-05-04T00:23:22.829Z,0.00
2018-05-04T00:24:22.760Z,0.00
2018-05-04T00:25:22.702Z,0.00
2018-05-04T00:26:22.630Z,0.00
2018-05-04T00:27:22.567Z,0.00
2018-05-04T00:28:22.506Z,0.00
2018-05-04T00:29:22.444Z,0.00
2018-05-04T00:30:22.380Z,0.00
2018-05-04T00:31:22.308Z,0.00
2018-05-04T00:32:22.246Z,0.00
2018-05-04T00:33:29.819Z,0.00
2018-05-04T00:35:16.510Z,0.00
2018-05-04T00:36:16.378Z,0.00
2018-05-04T00:38:10.687Z,0.00
2018-05-04T00:39:10.583Z,0.00
2018-05-04T00:41:04.884Z,0.00
2018-05-04T00:42:04.777Z,0.00
2018-05-04T00:43:58.090Z,0.00
2018-05-04T00:44:57.989Z,0.00
2018-05-04T00:46:51.297Z,0.00
2018-05-04T00:47:51.189Z,0.00
2018-05-04T00:49:45.482Z,0.00
2018-05-04T00:50:45.385Z,0.00
2018-05-04T00:52:39.712Z,0.00
2018-05-04T00:53:39.590Z,0.00
2018-05-04T00:55:34.079Z,0.00
2018-05-04T00:56:33.987Z,0.00
2018-05-04T00:58:27.298Z,0.00
2018-05-04T00:59:27.190Z,0.00
2018-05-04T01:01:21.482Z,0.00
2018-05-04T01:02:21.384Z,0.00
2018-05-04T01:04:15.680Z,0.00
2018-05-04T01:05:15.580Z,0.00
2018-05-04T01:07:08.884Z,0.00
2018-05-04T01:08:08.782Z,0.00
2018-05-04T01:10:03.107Z,0.00
2018-05-04T01:11:02.988Z,0.00
2018-05-04T01:12:56.292Z,0.00
2018-05-04T01:13:56.195Z,0.00
2018-05-04T01:15:50.484Z,0.00
2018-05-04T01:16:50.396Z,0.00
2018-05-04T01:18:43.707Z,0.00
2018-05-04T01:19:43.600Z,0.00
2018-05-04T01:21:37.899Z,0.00
2018-05-04T01:22:37.794Z,0.00
2018-05-04T01:24:32.100Z,0.00
2018-05-04T01:25:32.004Z,0.00
2018-05-04T01:27:25.515Z,0.00
2018-05-04T01:28:25.400Z,0.00
2018-05-04T01:30:18.706Z,0.00
2018-05-04T01:31:18.606Z,0.00
2018-05-04T01:33:12.901Z,0.00
2018-05-04T01:34:12.797Z,0.00
2018-05-04T01:36:07.098Z,0.00
2018-05-04T01:37:07.004Z,0.00
2018-05-04T01:39:01.301Z,0.00
2018-05-04T01:40:01.200Z,0.00
2018-05-04T01:41:55.478Z,0.00
2018-05-04T01:42:55.385Z,0.00
2018-05-04T01:44:48.698Z,0.00
2018-05-04T01:45:48.593Z,0.00
2018-05-04T01:47:41.897Z,0.00
2018-05-04T01:48:41.794Z,0.00
2018-05-04T01:50:35.090Z,0.00
2018-05-04T01:51:34.995Z,0.00
2018-05-04T01:53:28.308Z,0.00
2018-05-04T01:54:28.281Z,0.00
2018-05-04T01:56:21.501Z,0.00
2018-05-04T01:57:21.403Z,0.00
2018-05-04T01:59:15.710Z,0.00
2018-05-04T02:00:15.602Z,0.00
2018-05-04T02:02:09.896Z,0.00
2018-05-04T02:03:09.795Z,0.00
2018-05-04T02:05:04.091Z,0.00
2018-05-04T02:06:03.995Z,0.00
2018-05-04T02:07:58.294Z,0.00
2018-05-04T02:08:58.188Z,0.00
2018-05-04T02:10:52.477Z,0.00
2018-05-04T02:11:52.380Z,0.00
2018-05-04T02:13:45.684Z,0.00
2018-05-04T02:14:45.581Z,0.00
2018-05-04T02:16:38.877Z,0.00
2018-05-04T02:17:38.782Z,0.00
2018-05-04T02:19:33.090Z,0.00
2018-05-04T02:20:32.979Z,0.00
2018-05-04T02:22:27.267Z,0.00
2018-05-04T02:23:27.172Z,0.00
2018-05-04T02:25:22.086Z,0.00
2018-05-04T02:26:21.365Z,0.00
2018-05-04T02:28:15.658Z,0.00
2018-05-04T02:29:15.563Z,0.00
2018-05-04T02:31:09.852Z,0.00
2018-05-04T02:32:09.746Z,0.00
2018-05-04T02:34:03.053Z,0.00
2018-05-04T02:35:02.953Z,0.00
2018-05-04T02:36:56.273Z,0.00
2018-05-04T02:37:56.161Z,0.00
2018-05-04T02:39:50.451Z,0.00
2018-05-04T02:40:50.354Z,0.00
2018-05-04T02:42:44.648Z,0.00
2018-05-04T02:43:44.545Z,0.00
2018-05-04T02:45:37.846Z,0.00
2018-05-04T02:46:37.747Z,0.00
2018-05-04T02:48:31.059Z,0.00
2018-05-04T02:49:30.953Z,0.00
2018-05-04T02:51:24.269Z,0.00
2018-05-04T02:52:24.146Z,0.00
2018-05-04T02:54:18.450Z,0.00
2018-05-04T02:55:18.354Z,0.00
2018-05-04T02:57:11.652Z,0.00
2018-05-04T02:58:11.553Z,0.00
2018-05-04T03:00:05.846Z,0.00
2018-05-04T03:01:05.743Z,0.00
2018-05-04T03:03:00.044Z,0.00
2018-05-04T03:03:59.932Z,0.00
2018-05-04T03:05:53.234Z,0.00
2018-05-04T03:06:53.131Z,0.00
2018-05-04T03:07:53.070Z,0.00
2018-05-04T03:08:53.004Z,0.00
2018-05-04T03:09:52.942Z,0.00
2018-05-04T03:10:52.876Z,0.00
2018-05-04T03:11:52.808Z,0.00
2018-05-04T03:12:52.744Z,0.00
2018-05-04T03:13:52.680Z,0.00
2018-05-04T03:14:52.614Z,0.00
2018-05-04T03:15:52.549Z,0.00
2018-05-04T03:16:52.485Z,0.00
2018-05-04T03:17:52.416Z,0.00
2018-05-04T03:18:52.353Z,0.00
2018-05-04T03:19:52.294Z,0.00
2018-05-04T03:20:52.223Z,0.00
2018-05-04T03:21:52.179Z,5.63
2018-05-04T03:22:52.094Z,5.63
2018-05-04T03:23:52.029Z,5.63
2018-05-04T03:24:51.968Z,5.63
2018-05-04T03:25:51.895Z,5.63
2018-05-04T03:26:51.830Z,5.63
2018-05-04T03:27:51.769Z,11.25
2018-05-04T03:28:51.703Z,11.25
2018-05-04T03:29:51.636Z,11.25
2018-05-04T03:30:51.571Z,11.25
2018-05-04T03:31:51.512Z,11.25
2018-05-04T03:32:51.440Z,16.88
2018-05-04T03:33:51.413Z,16.88
2018-05-04T03:34:51.313Z,16.88
2018-05-04T03:35:51.250Z,16.88
2018-05-04T03:36:51.194Z,22.50
2018-05-04T03:37:51.116Z,22.50
2018-05-04T03:38:51.047Z,22.50
2018-05-04T03:39:50.986Z,22.50
2018-05-04T03:40:50.920Z,28.13
2018-05-04T03:41:50.855Z,28.13
2018-05-04T03:42:50.826Z,28.13
2018-05-04T03:43:50.732Z,33.75
2018-05-04T03:44:50.658Z,33.75
2018-05-04T03:45:50.594Z,33.75
2018-05-04T03:46:50.528Z,39.38
2018-05-04T03:47:50.463Z,39.38
2018-05-04T03:48:50.401Z,39.38
2018-05-04T03:49:50.330Z,45.00
2018-05-04T03:50:50.266Z,45.00
2018-05-04T03:51:50.204Z,50.63
2018-05-04T03:52:50.139Z,50.63
2018-05-04T03:53:50.068Z,50.63
2018-05-04T03:54:50.006Z,56.25
2018-05-04T03:55:49.942Z,56.25
2018-05-04T03:56:49.877Z,56.25
2018-05-04T03:57:49.808Z,61.88
2018-05-04T03:58:49.742Z,61.88
2018-05-04T03:59:49.681Z,67.50
2018-05-04T04:00:49.619Z,67.50
2018-05-04T04:01:49.547Z,67.50
2018-05-04T04:02:49.483Z,73.13
2018-05-04T04:03:49.417Z,73.13
2018-05-04T04:04:49.354Z,78.75
2018-05-04T04:05:49.291Z,78.75
2018-05-04T04:06:49.227Z,78.75
2018-05-04T04:07:49.158Z,84.38
2018-05-04T04:08:49.095Z,84.38
2018-05-04T04:09:49.025Z,90.00
2018-05-04T04:10:48.960Z,90.00
2018-05-04T04:11:48.894Z,90.00
2018-05-04T04:12:48.830Z,95.63
2018-05-04T04:13:48.767Z,95.63
2018-05-04T04:14:48.700Z,101.25
2018-05-04T04:15:48.629Z,101.25
2018-05-04T04:16:48.569Z,106.88
2018-05-04T04:17:48.557Z,106.88
2018-05-04T04:18:48.440Z,106.88
2018-05-04T04:19:48.375Z,112.50
2018-05-04T04:20:48.311Z,112.50
2018-05-04T04:21:48.243Z,118.13
2018-05-04T04:22:48.184Z,118.13
2018-05-04T04:23:48.119Z,118.13
2018-05-04T04:24:48.050Z,123.75
2018-05-04T04:25:47.987Z,123.75
2018-05-04T04:26:47.917Z,129.38
2018-05-04T04:27:47.850Z,129.38
2018-05-04T04:28:47.792Z,129.38
2018-05-04T04:29:47.719Z,135.00
2018-05-04T04:30:47.655Z,135.00
2018-05-04T04:31:47.592Z,140.63
2018-05-04T04:32:47.528Z,140.63
2018-05-04T04:33:47.459Z,146.25
2018-05-04T04:34:47.414Z,146.25
2018-05-04T04:35:47.333Z,146.25
2018-05-04T04:36:47.264Z,151.88
2018-05-04T04:37:47.201Z,151.88
2018-05-04T04:38:47.234Z,151.88
2018-05-04T04:39:47.078Z,157.50
2018-05-04T04:40:47.016Z,157.50
2018-05-04T04:41:46.940Z,157.50
2018-05-04T04:42:46.869Z,157.50
2018-05-04T04:43:46.807Z,157.50
2018-05-04T04:44:46.744Z,163.13
2018-05-04T04:45:46.684Z,163.13
2018-05-04T04:46:46.615Z,163.13
2018-05-04T04:47:46.547Z,168.75
2018-05-04T04:48:46.483Z,168.75
2018-05-04T04:49:46.422Z,168.75
2018-05-04T04:50:46.356Z,174.38
2018-05-04T04:51:46.296Z,174.38
2018-05-04T04:52:46.223Z,180.00
2018-05-04T04:53:46.158Z,180.00
2018-05-04T04:54:46.089Z,191.25
2018-05-04T04:55:46.026Z,185.63
2018-05-04T04:56:45.967Z,185.63
2018-05-04T04:57:45.910Z,191.25
2018-05-04T04:58:45.835Z,191.25
2018-05-04T04:59:45.771Z,191.25
2018-05-04T05:00:45.736Z,196.88
2018-05-04T05:01:45.645Z,196.88
2018-05-04T05:02:45.572Z,196.88
2018-05-04T05:03:45.510Z,202.50
2018-05-04T05:04:45.443Z,202.50
2018-05-04T05:05:45.375Z,208.13
2018-05-04T05:06:45.311Z,208.13
2018-05-04T05:07:45.276Z,208.13
2018-05-04T05:08:45.183Z,213.75
2018-05-04T05:09:45.120Z,213.75
2018-05-04T05:10:45.055Z,219.38
2018-05-04T05:11:44.990Z,219.38
2018-05-04T05:12:44.929Z,219.38
2018-05-04T05:13:44.856Z,225.00
2018-05-04T05:14:44.794Z,225.00
2018-05-04T05:15:44.727Z,230.63
2018-05-04T05:16:44.663Z,230.63
2018-05-04T05:17:44.606Z,230.63
2018-05-04T05:18:44.535Z,230.63
2018-05-04T05:19:44.467Z,230.63
2018-05-04T05:20:44.405Z,236.25
2018-05-04T05:21:44.343Z,236.25
2018-05-04T05:22:44.278Z,236.25
2018-05-04T05:23:44.215Z,236.25
2018-05-04T05:24:44.151Z,241.88
2018-05-04T05:25:44.085Z,241.88
2018-05-04T05:26:44.016Z,241.88
2018-05-04T05:27:43.952Z,247.50
2018-05-04T05:28:43.887Z,247.50
2018-05-04T05:29:43.825Z,247.50
2018-05-04T05:30:43.762Z,253.13
2018-05-04T05:31:43.697Z,253.13
2018-05-04T05:32:43.640Z,253.13
2018-05-04T05:33:43.566Z,258.75
2018-05-04T05:34:43.502Z,258.75
2018-05-04T05:35:43.440Z,258.75
2018-05-04T05:36:43.377Z,264.38
2018-05-04T05:37:43.306Z,264.38
2018-05-04T05:38:43.242Z,264.38
2018-05-04T05:39:43.180Z,264.38
2018-05-04T05:40:43.125Z,270.00
2018-05-04T05:41:43.052Z,270.00
2018-05-04T05:42:42.992Z,270.00
2018-05-04T05:43:42.925Z,275.63
2018-05-04T05:44:42.859Z,275.63
2018-05-04T05:45:42.791Z,275.63
2018-05-04T05:46:42.731Z,275.63
2018-05-04T05:47:42.668Z,281.25
2018-05-04T05:48:42.610Z,281.25
2018-05-04T05:49:42.540Z,281.25
2018-05-04T05:50:42.478Z,286.88
2018-05-04T05:51:42.406Z,286.88
2018-05-04T05:52:42.343Z,286.88
2018-05-04T05:53:42.281Z,292.50
2018-05-04T05:54:42.301Z,292.50
2018-05-04T05:55:42.159Z,292.50
2018-05-04T05:56:42.088Z,292.50
2018-05-04T05:57:42.023Z,292.50
2018-05-04T05:58:41.960Z,298.13
2018-05-04T05:59:41.895Z,298.13
2018-05-04T06:00:41.831Z,298.13
2018-05-04T06:01:41.770Z,298.13
2018-05-04T06:02:41.703Z,298.13
2018-05-04T06:03:41.643Z,298.13
2018-05-04T06:04:41.579Z,298.13
2018-05-04T06:05:41.513Z,298.13
2018-05-04T06:06:41.447Z,298.13
2018-05-04T06:07:41.388Z,303.75
2018-05-04T06:08:41.322Z,303.75
2018-05-04T06:09:41.255Z,303.75
2018-05-04T06:10:41.192Z,303.75
2018-05-04T06:11:41.129Z,303.75
2018-05-04T06:12:41.069Z,309.38
2018-05-04T06:13:41.002Z,309.38
2018-05-04T06:14:40.939Z,309.38
2018-05-04T06:15:40.876Z,309.38
2018-05-04T06:16:40.812Z,309.38
2018-05-04T06:17:40.745Z,309.38
2018-05-04T06:18:40.683Z,315.00
2018-05-04T06:19:40.621Z,315.00
2018-05-04T06:20:40.558Z,315.00
2018-05-04T06:21:40.493Z,315.00
2018-05-04T06:22:40.431Z,315.00
2018-05-04T06:23:40.370Z,326.25
2018-05-04T06:24:40.309Z,320.63
2018-05-04T06:25:40.242Z,320.63
2018-05-04T06:26:40.180Z,320.63
2018-05-04T06:27:40.121Z,320.63
2018-05-04T06:28:40.051Z,320.63
2018-05-04T06:29:39.985Z,326.25
2018-05-04T06:30:39.922Z,326.25
2018-05-04T06:31:39.862Z,326.25
2018-05-04T06:32:39.794Z,326.25
2018-05-04T06:33:39.735Z,326.25
2018-05-04T06:34:39.673Z,326.25
2018-05-04T06:35:39.613Z,331.88
2018-05-04T06:36:39.544Z,331.88
2018-05-04T06:37:39.476Z,331.88
2018-05-04T06:38:39.418Z,331.88
2018-05-04T06:39:39.432Z,331.88
2018-05-04T06:40:39.292Z,331.88
2018-05-04T06:41:39.228Z,331.88
2018-05-04T06:42:39.162Z,331.88
2018-05-04T06:43:39.103Z,331.88
2018-05-04T06:44:39.042Z,337.50
2018-05-04T06:45:39.015Z,337.50
2018-05-04T06:46:38.913Z,337.50
2018-05-04T06:47:38.847Z,343.13
2018-05-04T06:48:38.805Z,337.50
2018-05-04T06:49:38.726Z,343.13
2018-05-04T06:50:38.658Z,343.13
2018-05-04T06:51:38.597Z,343.13
2018-05-04T06:52:38.541Z,343.13
2018-05-04T06:53:38.473Z,343.13
2018-05-04T06:54:38.411Z,343.13
2018-05-04T06:55:38.349Z,343.13
2018-05-04T06:56:38.345Z,348.75
2018-05-04T06:57:38.230Z,348.75
2018-05-04T06:58:38.160Z,348.75
2018-05-04T06:59:38.097Z,354.38
2018-05-04T07:00:38.035Z,348.75
2018-05-04T07:01:37.968Z,348.75
2018-05-04T07:02:37.905Z,354.38
2018-05-04T07:03:37.842Z,354.38
2018-05-04T07:04:37.782Z,354.38
2018-05-04T07:05:37.722Z,354.38
2018-05-04T07:06:37.683Z,354.38
2018-05-04T07:07:37.601Z,354.38
2018-05-04T07:08:37.533Z,354.38
2018-05-04T07:09:37.468Z,354.38
2018-05-04T07:10:37.405Z,354.38
2018-05-04T07:11:37.347Z,354.38
2018-05-04T07:12:37.284Z,354.38
2018-05-04T07:13:37.223Z,354.38
2018-05-04T07:14:37.157Z,354.38
2018-05-04T07:15:37.092Z,354.38
2018-05-04T07:16:37.032Z,354.38
2018-05-04T07:17:36.975Z,354.38
2018-05-04T07:18:36.909Z,354.38
2018-05-04T07:19:36.848Z,354.38
2018-05-04T07:20:36.789Z,354.38
2018-05-04T07:21:36.718Z,354.38
2018-05-04T07:22:36.660Z,354.38
2018-05-04T07:23:36.598Z,360.00
2018-05-04T07:24:36.532Z,354.38
2018-05-04T07:25:36.474Z,354.38
2018-05-04T07:26:36.411Z,354.38
2018-05-04T07:27:36.348Z,354.38
2018-05-04T07:28:36.362Z,354.38
2018-05-04T07:29:36.225Z,354.38
2018-05-04T07:30:36.162Z,354.38
2018-05-04T07:31:36.107Z,354.38
2018-05-04T07:32:36.041Z,354.38
2018-05-04T07:33:35.973Z,354.38
2018-05-04T07:34:35.910Z,354.38
2018-05-04T07:35:35.849Z,354.38
2018-05-04T07:36:35.787Z,354.38
2018-05-04T07:37:35.727Z,354.38
2018-05-04T07:38:35.667Z,360.00
2018-05-04T07:39:35.606Z,354.38
2018-05-04T07:40:35.544Z,354.38
2018-05-04T07:41:35.481Z,354.38
2018-05-04T07:42:35.417Z,354.38
2018-05-04T07:43:35.358Z,354.38
2018-05-04T07:44:35.298Z,354.38
2018-05-04T07:45:35.233Z,354.38
2018-05-04T07:46:35.170Z,354.38
2018-05-04T07:47:35.106Z,354.38
2018-05-04T07:48:35.079Z,360.00
2018-05-04T07:49:35.003Z,354.38
2018-05-04T07:50:34.922Z,354.38
2018-05-04T07:51:34.859Z,354.38
2018-05-04T07:52:34.803Z,354.38
2018-05-04T07:53:34.747Z,354.38
2018-05-04T07:54:34.672Z,354.38
2018-05-04T07:55:34.624Z,354.38
2018-05-04T07:56:34.546Z,354.38
2018-05-04T07:57:34.488Z,354.38
2018-05-04T07:58:34.434Z,354.38
2018-05-04T07:59:34.360Z,354.38
2018-05-04T08:00:34.307Z,354.38
2018-05-04T08:01:34.239Z,354.38
2018-05-04T08:02:34.179Z,354.38
2018-05-04T08:03:34.119Z,354.38
2018-05-04T08:04:34.056Z,354.38
2018-05-04T08:05:33.993Z,354.38
2018-05-04T08:06:33.929Z,360.00
2018-05-04T08:07:33.867Z,360.00
2018-05-04T08:08:33.832Z,360.00
2018-05-04T08:09:33.746Z,354.38
2018-05-04T08:10:33.684Z,354.38
2018-05-04T08:11:33.623Z,354.38
2018-05-04T08:12:33.562Z,354.38
2018-05-04T08:13:33.497Z,354.38
2018-05-04T08:14:33.436Z,354.38
2018-05-04T08:15:33.375Z,354.38
2018-05-04T08:16:33.332Z,354.38
2018-05-04T08:17:33.251Z,354.38
2018-05-04T08:18:33.193Z,354.38
2018-05-04T08:19:33.134Z,354.38
2018-05-04T08:20:33.087Z,354.38
2018-05-04T08:21:33.007Z,354.38
2018-05-04T08:22:32.944Z,354.38
2018-05-04T08:23:32.887Z,354.38
2018-05-04T08:24:32.851Z,354.38
2018-05-04T08:25:32.757Z,354.38
2018-05-04T08:26:32.701Z,354.38
2018-05-04T08:27:32.636Z,354.38
2018-05-04T08:28:32.573Z,354.38
2018-05-04T08:29:32.514Z,354.38
2018-05-04T08:30:32.457Z,354.38
2018-05-04T08:31:32.388Z,354.38
2018-05-04T08:32:32.326Z,354.38
2018-05-04T08:33:32.304Z,354.38
2018-05-04T08:34:32.204Z,354.38
2018-05-04T08:35:32.249Z,354.38
2018-05-04T08:36:32.084Z,354.38
2018-05-04T08:37:32.031Z,354.38
2018-05-04T08:38:31.970Z,354.38
2018-05-04T08:39:31.900Z,354.38
2018-05-04T08:40:31.869Z,360.00
2018-05-04T08:41:31.786Z,354.38
2018-05-04T08:42:31.710Z,354.38
2018-05-04T08:43:31.652Z,354.38
2018-05-04T08:44:31.591Z,354.38
2018-05-04T08:45:31.527Z,354.38
2018-05-04T08:46:31.464Z,354.38
2018-05-04T08:47:31.403Z,354.38
2018-05-04T08:48:31.361Z,354.38
2018-05-04T08:49:31.278Z,354.38
2018-05-04T08:50:31.217Z,354.38
2018-05-04T08:51:31.158Z,360.00
2018-05-04T08:52:31.094Z,354.38
2018-05-04T08:53:31.035Z,354.38
2018-05-04T08:54:30.975Z,354.38
2018-05-04T08:55:30.911Z,360.00
2018-05-04T08:56:30.853Z,354.38
2018-05-04T08:57:30.803Z,354.38
2018-05-04T08:58:30.737Z,354.38
2018-05-04T08:59:30.664Z,354.38
2018-05-04T09:00:30.604Z,354.38
2018-05-04T09:01:30.552Z,354.38
2018-05-04T09:02:30.483Z,354.38
2018-05-04T09:03:30.439Z,354.38
2018-05-04T09:04:30.362Z,354.38
2018-05-04T09:05:30.407Z,354.38
2018-05-04T09:06:30.265Z,354.38
2018-05-04T09:07:30.178Z,354.38
2018-05-04T09:08:30.150Z,354.38
2018-05-04T09:09:30.051Z,354.38
2018-05-04T09:10:29.995Z,354.38
2018-05-04T09:11:29.924Z,354.38
2018-05-04T09:12:29.870Z,354.38
2018-05-04T09:13:29.814Z,354.38
2018-05-04T09:14:29.745Z,348.75
2018-05-04T09:15:29.683Z,348.75
2018-05-04T09:16:29.642Z,348.75
2018-05-04T09:17:29.557Z,348.75
2018-05-04T09:18:29.499Z,354.38
2018-05-04T09:19:29.461Z,354.38
2018-05-04T09:20:29.381Z,354.38
2018-05-04T09:21:29.346Z,354.38
2018-05-04T09:22:29.261Z,360.00
2018-05-04T09:23:29.193Z,354.38
2018-05-04T09:24:29.128Z,354.38
2018-05-04T09:25:29.071Z,354.38
2018-05-04T09:26:29.011Z,354.38
2018-05-04T09:27:28.953Z,354.38
2018-05-04T09:28:28.909Z,354.38
2018-05-04T09:29:28.858Z,354.38
2018-05-04T09:30:28.764Z,354.38
2018-05-04T09:31:28.699Z,354.38
2018-05-04T09:32:28.641Z,354.38
2018-05-04T09:33:28.584Z,354.38
2018-05-04T09:34:28.526Z,354.38
2018-05-04T09:35:28.456Z,354.38
2018-05-04T09:36:28.395Z,360.00
2018-05-04T09:37:28.342Z,360.00
2018-05-04T09:38:28.273Z,360.00
2018-05-04T09:39:28.220Z,360.00
2018-05-04T09:40:28.167Z,360.00
2018-05-04T09:41:28.091Z,360.00
2018-05-04T09:42:28.029Z,360.00
2018-05-04T09:43:28.024Z,360.00
2018-05-04T09:44:27.916Z,360.00
2018-05-04T09:45:27.848Z,360.00
2018-05-04T09:46:27.785Z,360.00
2018-05-04T09:47:27.724Z,360.00
2018-05-04T09:48:27.665Z,365.63
2018-05-04T09:49:27.602Z,365.63
2018-05-04T09:50:27.546Z,365.63
2018-05-04T09:51:27.481Z,365.63
2018-05-04T09:52:27.426Z,365.63
2018-05-04T09:53:27.355Z,365.63
2018-05-04T09:54:27.294Z,365.63
2018-05-04T09:55:27.242Z,365.63
2018-05-04T09:56:27.176Z,365.63
2018-05-04T09:57:27.115Z,365.63
2018-05-04T09:58:27.063Z,365.63
2018-05-04T09:59:26.992Z,365.63
2018-05-04T10:00:26.933Z,371.25
2018-05-04T10:01:26.870Z,371.25
2018-05-04T10:02:26.807Z,371.25
2018-05-04T10:03:26.819Z,371.25
2018-05-04T10:04:26.689Z,371.25
2018-05-04T10:05:26.645Z,371.25
2018-05-04T10:06:26.566Z,371.25
2018-05-04T10:07:26.509Z,376.88
2018-05-04T10:08:26.446Z,371.25
2018-05-04T10:09:26.407Z,376.88
2018-05-04T10:10:26.326Z,371.25
2018-05-04T10:11:26.260Z,371.25
2018-05-04T10:12:26.238Z,376.88
2018-05-04T10:13:26.140Z,376.88
2018-05-04T10:14:26.076Z,376.88
2018-05-04T10:15:26.026Z,376.88
2018-05-04T10:16:25.959Z,376.88
2018-05-04T10:17:25.895Z,376.88
2018-05-04T10:18:25.836Z,376.88
2018-05-04T10:19:25.771Z,376.88
2018-05-04T10:20:25.718Z,376.88
2018-05-04T10:21:25.651Z,382.50
2018-05-04T10:22:25.596Z,382.50
2018-05-04T10:23:25.546Z,382.50
2018-05-04T10:24:25.510Z,382.50
2018-05-04T10:25:25.411Z,382.50
2018-05-04T10:26:25.346Z,388.13
2018-05-04T10:27:25.288Z,393.75
2018-05-04T10:28:25.221Z,388.13
2018-05-04T10:29:25.167Z,388.13
2018-05-04T10:30:25.108Z,388.13
2018-05-04T10:31:25.046Z,393.75
2018-05-04T10:32:24.982Z,393.75
2018-05-04T10:33:24.920Z,393.75
2018-05-04T10:34:24.890Z,399.38
2018-05-04T10:35:24.855Z,405.00
2018-05-04T10:36:24.738Z,399.38
2018-05-04T10:37:24.676Z,405.00
2018-05-04T10:38:24.683Z,410.63
2018-05-04T10:39:24.586Z,405.00
2018-05-04T10:40:24.494Z,405.00
2018-05-04T10:41:24.445Z,410.63
2018-05-04T10:42:24.396Z,410.63
2018-05-04T10:43:24.329Z,410.63
2018-05-04T10:44:24.252Z,416.25
2018-05-04T10:45:26.916Z,416.25
2018-05-04T10:46:24.129Z,416.25
2018-05-04T10:47:24.072Z,433.13
2018-05-04T10:48:24.009Z,427.50
2018-05-04T10:49:23.952Z,427.50
2018-05-04T10:50:23.888Z,427.50
2018-05-04T10:51:23.827Z,433.13
2018-05-04T10:52:23.768Z,438.75
2018-05-04T10:53:23.704Z,444.38
2018-05-04T10:54:23.661Z,450.00
2018-05-04T10:55:23.586Z,455.63
2018-05-04T10:56:23.526Z,461.25
2018-05-04T10:57:23.462Z,466.88
2018-05-04T10:58:23.404Z,472.50
2018-05-04T10:59:23.342Z,472.50
2018-05-04T11:00:23.294Z,478.13
2018-05-04T11:01:23.231Z,483.75
2018-05-04T11:02:23.167Z,489.38
2018-05-04T11:03:23.934Z,495.00
2018-05-04T11:04:23.044Z,500.63
2018-05-04T11:05:23.021Z,506.25
2018-05-04T11:06:22.945Z,511.88
2018-05-04T11:07:22.875Z,517.50
2018-05-04T11:08:22.809Z,523.13
2018-05-04T11:09:22.751Z,528.75
2018-05-04T11:10:22.693Z,528.75
2018-05-04T11:11:22.669Z,534.38
2018-05-04T11:12:22.576Z,540.00
2018-05-04T11:13:22.522Z,551.25
2018-05-04T11:14:22.469Z,556.88
2018-05-04T11:15:22.424Z,573.75
2018-05-04T11:16:22.355Z,585.00
2018-05-04T11:17:22.299Z,618.75
2018-05-04T11:18:22.235Z,1080.00
2018-05-04T11:19:22.256Z,3211.88
2018-05-04T11:20:22.131Z,4466.25
2018-05-04T11:21:22.074Z,4533.75
2018-05-04T11:22:22.021Z,4511.25
2018-05-04T11:23:21.966Z,4471.88
2018-05-04T11:24:21.912Z,4398.75
2018-05-04T11:25:21.860Z,4263.75
2018-05-04T11:26:21.801Z,4095.00
2018-05-04T11:27:21.753Z,3915.00
2018-05-04T11:28:21.699Z,3813.75
2018-05-04T11:29:24.465Z,3802.50
2018-05-04T11:30:21.592Z,3870.00
2018-05-04T11:31:21.541Z,3999.38
2018-05-04T11:32:21.499Z,4117.50
2018-05-04T11:33:21.437Z,4258.13
2018-05-04T11:34:21.390Z,4398.75
2018-05-04T11:35:21.340Z,4528.13
2018-05-04T11:36:21.305Z,4623.75
2018-05-04T11:37:21.237Z,4618.13
2018-05-04T11:38:21.194Z,4623.75
2018-05-04T11:39:21.137Z,4584.38
2018-05-04T11:40:21.089Z,4556.25
2018-05-04T11:41:21.039Z,4477.50
2018-05-04T11:42:20.990Z,4336.88
2018-05-04T11:43:20.939Z,4095.00
2018-05-04T11:44:20.892Z,3858.75
2018-05-04T11:45:20.848Z,3785.63
2018-05-04T11:46:20.806Z,3892.50
2018-05-04T11:47:20.749Z,4055.63
2018-05-04T11:48:20.710Z,4213.13
2018-05-04T11:49:20.654Z,4376.25
2018-05-04T11:50:20.608Z,4494.38
2018-05-04T11:51:20.564Z,4595.63
2018-05-04T11:52:20.511Z,4696.88
2018-05-04T11:53:20.470Z,4764.38
2018-05-04T11:54:20.421Z,4809.38
2018-05-04T11:55:20.378Z,4820.63
2018-05-04T11:56:20.338Z,4815.00
2018-05-04T11:57:20.293Z,4792.50
2018-05-04T11:58:20.238Z,4725.00
2018-05-04T11:59:20.193Z,4612.50
2018-05-04T12:00:20.154Z,4483.13
2018-05-04T12:01:20.099Z,4348.13
2018-05-04T12:02:20.110Z,4269.38
2018-05-04T12:03:20.016Z,4230.00
2018-05-04T12:04:19.967Z,4291.88
2018-05-04T12:05:19.938Z,4365.00
2018-05-04T12:06:19.879Z,4449.38
2018-05-04T12:07:19.850Z,4500.00
2018-05-04T12:08:19.790Z,4494.38
2018-05-04T12:09:19.752Z,4556.25
2018-05-04T12:10:19.699Z,4612.50
2018-05-04T12:11:19.658Z,4651.88
2018-05-04T12:12:19.610Z,4708.13
2018-05-04T12:13:19.573Z,4730.63
2018-05-04T12:14:19.522Z,4736.25
2018-05-04T12:15:19.485Z,4680.00
2018-05-04T12:16:19.505Z,4680.00
2018-05-04T12:17:19.399Z,4623.75
2018-05-04T12:18:19.347Z,4505.63
2018-05-04T12:19:19.311Z,4398.75
2018-05-04T12:20:19.260Z,4410.00
2018-05-04T12:21:19.222Z,4477.50
2018-05-04T12:22:19.171Z,4618.13
2018-05-04T12:23:19.131Z,4786.88
2018-05-04T12:24:19.086Z,4905.00
2018-05-04T12:25:19.106Z,4961.25
2018-05-04T12:26:19.003Z,5000.63
2018-05-04T12:27:18.966Z,5006.25
2018-05-04T12:28:18.916Z,5006.25
2018-05-04T12:29:18.875Z,4972.50
2018-05-04T12:30:18.832Z,4882.50
2018-05-04T12:31:18.790Z,4809.38
2018-05-04T12:32:18.746Z,4792.50
2018-05-04T12:33:18.700Z,4708.13
2018-05-04T12:34:18.657Z,4584.38
2018-05-04T12:35:18.616Z,4449.38
2018-05-04T12:36:18.575Z,4286.25
2018-05-04T12:37:18.534Z,4168.13
2018-05-04T12:38:18.494Z,4095.00
2018-05-04T12:39:18.451Z,4123.13
2018-05-04T12:40:18.412Z,4173.75
2018-05-04T12:41:18.358Z,4061.25
2018-05-04T12:42:18.320Z,3864.38
2018-05-04T12:43:18.276Z,3802.50
2018-05-04T12:44:18.238Z,4044.38
2018-05-04T12:45:18.208Z,4230.00
2018-05-04T12:46:18.153Z,4443.75
2018-05-04T12:47:18.109Z,4691.25
2018-05-04T12:48:18.090Z,4837.50
2018-05-04T12:49:18.032Z,4888.13
2018-05-04T12:50:17.984Z,4803.75
2018-05-04T12:51:17.949Z,4786.88
2018-05-04T12:52:17.911Z,4736.25
2018-05-04T12:53:17.862Z,4741.88
2018-05-04T12:54:17.826Z,4629.38
2018-05-04T12:55:17.772Z,4550.63
2018-05-04T12:56:17.729Z,4545.00
2018-05-04T12:57:17.696Z,4629.38
2018-05-04T12:58:17.651Z,4635.00
2018-05-04T12:59:17.655Z,4696.88
2018-05-04T13:00:17.613Z,4730.63
2018-05-04T13:01:17.542Z,4758.75
2018-05-04T13:02:17.485Z,4860.00
2018-05-04T13:03:17.457Z,4955.63
2018-05-04T13:04:17.405Z,4905.00
2018-05-04T13:05:17.357Z,4556.25
2018-05-04T13:06:17.321Z,4438.13
2018-05-04T13:07:17.274Z,5085.00
2018-05-04T13:08:17.319Z,5152.50
2018-05-04T13:09:17.192Z,5158.13
2018-05-04T13:10:17.162Z,5096.25
2018-05-04T13:11:17.130Z,4966.88
2018-05-04T13:12:17.072Z,4848.75
2018-05-04T13:13:17.028Z,4775.63
2018-05-04T13:14:17.009Z,4747.50
2018-05-04T13:15:16.946Z,4792.50
2018-05-04T13:16:16.907Z,4938.75
2018-05-04T13:17:16.867Z,5068.13
2018-05-04T13:18:16.845Z,5107.50
2018-05-04T13:19:16.786Z,5130.00
2018-05-04T13:20:16.745Z,4831.88
2018-05-04T13:21:16.702Z,4730.63
2018-05-04T13:22:16.661Z,4668.75
2018-05-04T13:23:16.663Z,4443.75